Time;durP1;ratioP1;P1;durP2;ratioP2;P2;SDS_P1;SDS_P2;PMS_P1;PMS_P2;Temp;Humidity;BMP_temperature;BMP_pressure;BME280_temperature;BME280_humidity;BME280_pressure;Samples;Min_cycle;Max_cycle;Signal;HPM_P1;HPM_P2
2022/06/22 00:01:51;;;;;;;7.68;3.20;;;;;;;;;;3335787;42;20101;-59
2022/06/22 00:04:50;;;;;;;7.10;2.70;;;;;;;;;;3344087;42;20137;-60
2022/06/22 00:07:22;;;;;;;7.90;2.75;;;;;;;;;;3335168;42;20123;-58
2022/06/22 00:09:52;;;;;;;8.83;2.83;;;;;;;;;;3334985;42;20099;-59
2022/06/22 00:12:23;;;;;;;7.78;3.08;;;;;;;;;;3336436;42;20085;-59
2022/06/22 00:14:51;;;;;;;7.05;2.92;;;;;;;;;;3337185;42;20640;-58
2022/06/22 00:17:36;;;;;;;9.57;3.25;;;;;;;;;;3345014;42;20097;-58
2022/06/22 00:20:20;;;;;;;7.22;3.20;;;;;;;;;;3344408;42;20152;-59
2022/06/22 00:22:58;;;;;;;8.33;3.13;;;;;;;;;;3341236;42;20567;-58
2022/06/22 00:25:37;;;;;;;9.93;2.90;;;;;;;;;;3346892;42;20556;-59
2022/06/22 00:28:29;;;;;;;8.63;3.20;;;;;;;;;;3342596;42;20280;-59
2022/06/22 00:31:23;;;;;;;8.50;3.20;;;;;;;;;;3341494;42;20145;-59
2022/06/22 00:34:05;;;;;;;7.68;3.10;;;;;;;;;;3334395;42;20568;-60
2022/06/22 00:36:44;;;;;;;7.53;2.90;;;;;;;;;;3345806;42;20104;-58
2022/06/22 00:39:14;;;;;;;6.45;2.60;;;;;;;;;;3346551;42;20089;-60
2022/06/22 00:41:41;;;;;;;7.40;2.80;;;;;;;;;;3342751;42;20100;-60
2022/06/22 00:44:07;;;;;;;6.50;2.55;;;;;;;;;;3344114;42;20108;-60
2022/06/22 00:46:33;;;;;;;6.68;2.35;;;;;;;;;;3343857;42;20628;-60
2022/06/22 00:49:04;;;;;;;7.23;2.83;;;;;;;;;;3336295;42;20085;-60
2022/06/22 00:51:32;;;;;;;6.47;2.78;;;;;;;;;;3336213;42;20092;-60
2022/06/22 00:54:00;;;;;;;7.88;3.30;;;;;;;;;;3344241;42;20090;-60
2022/06/22 00:56:41;;;;;;;7.38;2.80;;;;;;;;;;3343090;42;20100;-61
2022/06/22 00:59:26;;;;;;;8.00;2.80;;;;;;;;;;3346693;42;20082;-56
2022/06/22 01:01:55;;;;;;;6.88;2.65;;;;;;;;;;3344855;42;20098;-59
2022/06/22 01:04:29;;;;;;;7.15;2.58;;;;;;;;;;3340620;42;20097;-58
2022/06/22 01:07:00;;;;;;;6.75;2.45;;;;;;;;;;3344932;42;20099;-59
2022/06/22 01:09:39;;;;;;;6.40;2.67;;;;;;;;;;3337242;42;20155;-59
2022/06/22 01:12:34;;;;;;;6.67;2.40;;;;;;;;;;3343527;42;20128;-59
2022/06/22 01:15:18;;;;;;;6.38;2.30;;;;;;;;;;3349545;42;20097;-59
2022/06/22 01:17:53;;;;;;;6.25;2.50;;;;;;;;;;3345932;42;20136;-59
2022/06/22 01:20:25;;;;;;;7.10;2.30;;;;;;;;;;3340675;42;20473;-59
2022/06/22 01:23:02;;;;;;;6.93;2.28;;;;;;;;;;3349345;42;20209;-57
2022/06/22 01:25:44;;;;;;;6.00;2.60;;;;;;;;;;3344243;42;20650;-60
2022/06/22 01:28:11;;;;;;;11.27;2.78;;;;;;;;;;3344538;42;20094;-59
2022/06/22 01:30:39;;;;;;;5.80;2.30;;;;;;;;;;3347404;42;20085;-59
2022/06/22 01:33:17;;;;;;;6.78;2.00;;;;;;;;;;3346317;42;20100;-60
2022/06/22 01:35:43;;;;;;;6.30;2.28;;;;;;;;;;3339708;42;20144;-59
2022/06/22 01:38:26;;;;;;;6.03;2.27;;;;;;;;;;3344521;42;20081;-59
2022/06/22 01:41:02;;;;;;;5.60;2.13;;;;;;;;;;3342936;42;20107;-60
2022/06/22 01:43:50;;;;;;;5.72;2.03;;;;;;;;;;3342516;42;20236;-59
2022/06/22 01:46:22;;;;;;;6.30;2.00;;;;;;;;;;3344113;42;20171;-60
2022/06/22 01:49:12;;;;;;;6.53;2.00;;;;;;;;;;3345187;42;20081;-60
2022/06/22 01:51:52;;;;;;;7.17;2.10;;;;;;;;;;3345043;42;20107;-59
2022/06/22 01:54:22;;;;;;;8.60;2.00;;;;;;;;;;3344708;42;20620;-60
2022/06/22 01:57:24;;;;;;;6.30;2.25;;;;;;;;;;3347810;42;20096;-61
2022/06/22 01:59:53;;;;;;;6.38;2.22;;;;;;;;;;3331923;42;20734;-60
2022/06/22 02:02:25;;;;;;;5.45;1.90;;;;;;;;;;3345219;42;20591;-60
2022/06/22 02:05:03;;;;;;;6.07;2.00;;;;;;;;;;3342730;42;20160;-58
2022/06/22 02:07:47;;;;;;;6.90;2.08;;;;;;;;;;3334439;42;20603;-60
2022/06/22 02:10:39;;;;;;;5.30;2.22;;;;;;;;;;3341774;42;20153;-59
2022/06/22 02:13:23;;;;;;;6.55;2.30;;;;;;;;;;3348720;42;20076;-59
2022/06/22 02:16:11;;;;;;;6.28;2.20;;;;;;;;;;3334910;42;20743;-58
2022/06/22 02:18:43;;;;;;;10.20;2.53;;;;;;;;;;3344303;42;20096;-59
2022/06/22 02:21:22;;;;;;;7.03;2.17;;;;;;;;;;3342724;42;20602;-60
2022/06/22 02:24:17;;;;;;;7.20;2.80;;;;;;;;;;3346709;42;20469;-59
2022/06/22 02:27:00;;;;;;;5.93;2.42;;;;;;;;;;3341472;42;20495;-59
2022/06/22 02:29:32;;;;;;;7.03;2.60;;;;;;;;;;3338249;42;20080;-60
2022/06/22 02:32:00;;;;;;;7.07;2.40;;;;;;;;;;3346339;42;20081;-60
2022/06/22 02:34:26;;;;;;;9.05;2.72;;;;;;;;;;3343710;42;20097;-60
2022/06/22 02:36:53;;;;;;;7.38;2.58;;;;;;;;;;3333783;42;20184;-60
2022/06/22 02:39:20;;;;;;;7.57;2.38;;;;;;;;;;3344431;42;20148;-60
2022/06/22 02:44:34;;;;;;;6.23;2.20;;;;;;;;;;3343415;42;20546;-60
2022/06/22 02:47:14;;;;;;;6.80;2.40;;;;;;;;;;3338320;42;20151;-60
2022/06/22 02:49:41;;;;;;;6.47;2.20;;;;;;;;;;3346848;42;20132;-60
2022/06/22 02:52:08;;;;;;;7.13;2.30;;;;;;;;;;3342043;42;20085;-59
2022/06/22 02:54:36;;;;;;;8.73;2.50;;;;;;;;;;3337307;42;20101;-60
2022/06/22 02:57:21;;;;;;;10.93;2.97;;;;;;;;;;3344982;42;20148;-60
2022/06/22 02:59:48;;;;;;;7.75;2.65;;;;;;;;;;3342376;42;20101;-60
2022/06/22 03:02:14;;;;;;;8.95;2.50;;;;;;;;;;3344947;42;20165;-60
2022/06/22 03:04:40;;;;;;;8.65;2.90;;;;;;;;;;3332278;42;20087;-57
2022/06/22 03:07:06;;;;;;;8.97;2.63;;;;;;;;;;3348077;42;20128;-60
2022/06/22 03:09:32;;;;;;;7.55;2.47;;;;;;;;;;3347447;42;20093;-60
2022/06/22 03:11:58;;;;;;;9.30;2.80;;;;;;;;;;3341800;42;20167;-60
2022/06/22 03:14:26;;;;;;;10.05;3.40;;;;;;;;;;3343150;42;20135;-60
2022/06/22 03:16:59;;;;;;;21.70;6.17;;;;;;;;;;3342544;42;20611;-61
2022/06/22 03:19:53;;;;;;;29.33;8.20;;;;;;;;;;3335575;42;20878;-61
2022/06/22 03:22:23;;;;;;;27.85;8.20;;;;;;;;;;3344184;42;20147;-60
2022/06/22 03:24:56;;;;;;;22.25;5.65;;;;;;;;;;3337197;42;20085;-58
2022/06/22 03:27:23;;;;;;;10.38;3.00;;;;;;;;;;3339432;42;20551;-59
2022/06/22 03:29:54;;;;;;;11.77;2.90;;;;;;;;;;3336533;42;20184;-57
2022/06/22 03:32:30;;;;;;;7.28;2.40;;;;;;;;;;3346588;42;20600;-59
2022/06/22 03:35:04;;;;;;;10.00;2.42;;;;;;;;;;3343732;42;20092;-59
2022/06/22 03:37:34;;;;;;;8.98;2.70;;;;;;;;;;3341308;42;20097;-60
2022/06/22 03:40:04;;;;;;;6.68;2.13;;;;;;;;;;3342724;42;20107;-61
2022/06/22 03:42:36;;;;;;;6.70;1.97;;;;;;;;;;3347678;42;20104;-61
2022/06/22 03:45:24;;;;;;;9.20;2.00;;;;;;;;;;3337038;42;20100;-59
2022/06/22 03:48:30;;;;;;;6.63;2.13;;;;;;;;;;3340869;42;20081;-60
2022/06/22 03:51:03;;;;;;;6.20;1.90;;;;;;;;;;3321121;42;20157;-60
2022/06/22 03:53:43;;;;;;;6.90;2.40;;;;;;;;;;3317359;42;20134;-60
2022/06/22 03:56:11;;;;;;;10.07;2.60;;;;;;;;;;3332805;42;20092;-59
2022/06/22 03:58:38;;;;;;;6.50;2.60;;;;;;;;;;3351085;42;20076;-60
2022/06/22 04:01:05;;;;;;;6.32;2.55;;;;;;;;;;3337185;42;20100;-59
2022/06/22 04:03:31;;;;;;;9.40;2.83;;;;;;;;;;3342998;42;20320;-61
2022/06/22 04:05:57;;;;;;;8.95;3.30;;;;;;;;;;3344236;42;20272;-61
2022/06/22 04:08:32;;;;;;;7.37;2.60;;;;;;;;;;3338436;42;20552;-60
2022/06/22 04:11:05;;;;;;;7.18;2.47;;;;;;;;;;3335976;42;20109;-60
2022/06/22 04:13:42;;;;;;;9.85;2.92;;;;;;;;;;3344324;42;20190;-60
2022/06/22 04:16:12;;;;;;;8.38;3.00;;;;;;;;;;3338332;42;20091;-59
2022/06/22 04:18:42;;;;;;;8.35;2.88;;;;;;;;;;3339849;42;20556;-60
2022/06/22 04:21:09;;;;;;;8.07;3.20;;;;;;;;;;3342523;42;20097;-60
2022/06/22 04:24:11;;;;;;;12.35;3.55;;;;;;;;;;3347379;42;20144;-60
2022/06/22 04:26:49;;;;;;;9.23;3.15;;;;;;;;;;3334885;42;20133;-59
2022/06/22 04:29:36;;;;;;;8.10;3.25;;;;;;;;;;3337180;42;20559;-60
2022/06/22 04:32:20;;;;;;;8.55;2.85;;;;;;;;;;3338914;42;20085;-59
2022/06/22 04:34:53;;;;;;;7.83;2.80;;;;;;;;;;3354423;42;20156;-59
2022/06/22 04:37:28;;;;;;;8.98;2.78;;;;;;;;;;3340186;42;20152;-61
2022/06/22 04:40:06;;;;;;;9.10;3.00;;;;;;;;;;3346066;42;20635;-60
2022/06/22 04:42:32;;;;;;;6.38;2.90;;;;;;;;;;3340306;42;20475;-60
2022/06/22 04:44:58;;;;;;;6.95;3.00;;;;;;;;;;3343842;42;20096;-60
2022/06/22 04:47:27;;;;;;;8.77;2.87;;;;;;;;;;3349852;42;20088;-60
2022/06/22 04:50:06;;;;;;;8.35;2.53;;;;;;;;;;3348283;42;20144;-62
2022/06/22 04:52:41;;;;;;;7.70;2.85;;;;;;;;;;3352377;42;20144;-61
2022/06/22 04:55:09;;;;;;;9.65;2.58;;;;;;;;;;3335966;42;20635;-60
2022/06/22 04:57:37;;;;;;;7.80;2.20;;;;;;;;;;3341108;42;20100;-61
2022/06/22 05:00:06;;;;;;;7.93;2.40;;;;;;;;;;3344459;42;20156;-60
2022/06/22 05:02:32;;;;;;;6.15;2.17;;;;;;;;;;3342727;42;20081;-63
2022/06/22 05:05:05;;;;;;;7.03;2.40;;;;;;;;;;3347046;42;20092;-61
2022/06/22 05:08:00;;;;;;;7.63;2.30;;;;;;;;;;3343943;42;20550;-58
2022/06/22 05:10:45;;;;;;;5.97;2.20;;;;;;;;;;3343968;42;20476;-57
2022/06/22 05:13:15;;;;;;;6.13;2.00;;;;;;;;;;3343717;42;20085;-60
2022/06/22 05:15:42;;;;;;;6.75;2.20;;;;;;;;;;3350638;42;20189;-61
2022/06/22 05:18:18;;;;;;;6.03;2.17;;;;;;;;;;3335248;42;20101;-60
2022/06/22 05:20:51;;;;;;;6.05;2.22;;;;;;;;;;3340103;42;20085;-61
2022/06/22 05:23:19;;;;;;;5.97;2.30;;;;;;;;;;3339137;42;20591;-58
2022/06/22 05:25:45;;;;;;;5.82;2.10;;;;;;;;;;3342352;42;20625;-61
2022/06/22 05:28:15;;;;;;;6.53;2.35;;;;;;;;;;3343619;42;20128;-62
2022/06/22 05:31:15;;;;;;;7.85;2.22;;;;;;;;;;3337017;42;20081;-65
2022/06/22 05:33:44;;;;;;;6.63;2.22;;;;;;;;;;3344824;42;20105;-61
2022/06/22 05:36:11;;;;;;;6.83;2.20;;;;;;;;;;3347832;42;20216;-61
2022/06/22 05:38:39;;;;;;;8.10;2.10;;;;;;;;;;3338851;42;20184;-59
2022/06/22 05:41:07;;;;;;;5.80;2.33;;;;;;;;;;3344311;42;20104;-60
2022/06/22 05:43:35;;;;;;;7.70;2.25;;;;;;;;;;3338666;42;20156;-61
2022/06/22 05:46:06;;;;;;;6.40;2.33;;;;;;;;;;3337857;42;20671;-61
2022/06/22 05:48:34;;;;;;;7.80;2.33;;;;;;;;;;3337832;42;20278;-60
2022/06/22 05:51:10;;;;;;;5.93;2.22;;;;;;;;;;3345209;42;20132;-58
2022/06/22 05:53:47;;;;;;;5.22;2.20;;;;;;;;;;3350809;42;20144;-60
2022/06/22 05:56:37;;;;;;;5.55;1.98;;;;;;;;;;3346731;42;20159;-61
2022/06/22 05:59:22;;;;;;;7.00;2.00;;;;;;;;;;3349916;42;20220;-61
2022/06/22 06:02:14;;;;;;;9.30;2.50;;;;;;;;;;3344701;42;20100;-63
2022/06/22 06:04:40;;;;;;;5.82;2.30;;;;;;;;;;3345851;42;20143;-62
2022/06/22 06:07:11;;;;;;;6.95;2.40;;;;;;;;;;3350795;42;20141;-61
2022/06/22 06:09:37;;;;;;;7.35;2.22;;;;;;;;;;3348415;42;20112;-61
2022/06/22 06:12:14;;;;;;;7.53;2.60;;;;;;;;;;3348126;42;20208;-61
2022/06/22 06:14:42;;;;;;;8.52;2.10;;;;;;;;;;3344868;42;20119;-61
2022/06/22 06:17:24;;;;;;;6.05;2.17;;;;;;;;;;3342844;42;20132;-60
2022/06/22 06:19:51;;;;;;;7.88;2.28;;;;;;;;;;3350639;42;20093;-61
2022/06/22 06:22:17;;;;;;;5.82;2.30;;;;;;;;;;3346884;42;20089;-59
2022/06/22 06:27:43;;;;;;;6.45;2.30;;;;;;;;;;3365180;42;20100;-60
2022/06/22 06:30:19;;;;;;;5.97;2.40;;;;;;;;;;3365061;42;20091;-62
2022/06/22 06:32:58;;;;;;;6.63;2.00;;;;;;;;;;3361829;42;20178;-61
2022/06/22 06:35:36;;;;;;;5.85;2.30;;;;;;;;;;3365713;42;20156;-61
2022/06/22 06:38:29;;;;;;;6.13;2.13;;;;;;;;;;3365993;42;20084;-60
2022/06/22 06:41:11;;;;;;;5.82;2.20;;;;;;;;;;3354066;42;20326;-60
2022/06/22 06:44:00;;;;;;;6.10;2.08;;;;;;;;;;3359219;42;20178;-59
2022/06/22 06:46:42;;;;;;;6.82;2.10;;;;;;;;;;3358829;42;20151;-60
2022/06/22 06:49:13;;;;;;;7.78;2.22;;;;;;;;;;3357836;42;20092;-59
2022/06/22 06:51:40;;;;;;;5.50;2.13;;;;;;;;;;3357161;42;20139;-60
2022/06/22 06:54:27;;;;;;;5.50;2.08;;;;;;;;;;3365996;42;20139;-57
2022/06/22 06:56:59;;;;;;;6.50;2.38;;;;;;;;;;3356315;42;20084;-61
2022/06/22 06:59:28;;;;;;;5.88;2.20;;;;;;;;;;3365150;42;20148;-61
2022/06/22 07:01:54;;;;;;;6.57;2.20;;;;;;;;;;3355727;42;20093;-59
2022/06/22 07:04:29;;;;;;;8.97;2.27;;;;;;;;;;3365330;42;20120;-60
2022/06/22 07:06:59;;;;;;;8.55;2.40;;;;;;;;;;3364553;42;20100;-60
2022/06/22 07:09:33;;;;;;;6.85;2.40;;;;;;;;;;3368777;42;20092;-61
2022/06/22 07:12:12;;;;;;;9.43;2.28;;;;;;;;;;3364892;42;20136;-61
2022/06/22 07:14:40;;;;;;;6.88;2.38;;;;;;;;;;3363159;42;20080;-64
2022/06/22 07:17:09;;;;;;;9.00;2.40;;;;;;;;;;3353126;42;20168;-60
2022/06/22 07:19:38;;;;;;;9.25;2.40;;;;;;;;;;3344383;42;20097;-57
2022/06/22 07:22:15;;;;;;;6.45;2.45;;;;;;;;;;3355627;42;20104;-60
2022/06/22 07:24:48;;;;;;;6.32;2.50;;;;;;;;;;3350919;42;20078;-59
2022/06/22 07:27:37;;;;;;;6.28;2.40;;;;;;;;;;3347623;42;20096;-59
2022/06/22 07:30:21;;;;;;;6.80;2.63;;;;;;;;;;3352151;42;20154;-61
2022/06/22 07:32:56;;;;;;;5.93;2.25;;;;;;;;;;3347189;42;20144;-61
2022/06/22 07:35:28;;;;;;;6.10;2.50;;;;;;;;;;3348897;42;20122;-59
2022/06/22 07:38:12;;;;;;;7.05;2.45;;;;;;;;;;3354371;42;20100;-60
2022/06/22 07:40:39;;;;;;;7.55;2.70;;;;;;;;;;3348717;42;20103;-60
2022/06/22 07:43:05;;;;;;;5.90;2.40;;;;;;;;;;3347539;42;20212;-60
2022/06/22 07:45:31;;;;;;;6.40;2.50;;;;;;;;;;3353040;42;20132;-62
2022/06/22 07:48:08;;;;;;;6.05;2.50;;;;;;;;;;3356596;42;20092;-60
2022/06/22 07:50:39;;;;;;;7.00;2.60;;;;;;;;;;3354659;42;20104;-62
2022/06/22 07:53:14;;;;;;;7.95;2.72;;;;;;;;;;3352935;42;20132;-62
2022/06/22 07:55:51;;;;;;;7.60;2.53;;;;;;;;;;3341377;42;20097;-59
2022/06/22 07:58:22;;;;;;;6.18;2.42;;;;;;;;;;3340328;42;20090;-61
2022/06/22 08:00:49;;;;;;;7.28;2.60;;;;;;;;;;3349151;42;20096;-60
2022/06/22 08:03:44;;;;;;;7.55;2.42;;;;;;;;;;3343904;42;20125;-59
2022/06/22 08:06:13;;;;;;;8.02;2.70;;;;;;;;;;3352110;42;20544;-59
2022/06/22 08:08:45;;;;;;;8.37;2.83;;;;;;;;;;3341594;42;20107;-60
2022/06/22 08:11:14;;;;;;;9.27;3.05;;;;;;;;;;3357080;42;20089;-59
2022/06/22 08:13:44;;;;;;;6.68;2.60;;;;;;;;;;3347257;42;20104;-60
2022/06/22 08:16:36;;;;;;;10.07;3.05;;;;;;;;;;3344677;42;20192;-62
2022/06/22 08:19:02;;;;;;;7.20;2.80;;;;;;;;;;3352358;42;20103;-60
2022/06/22 08:21:28;;;;;;;7.40;2.70;;;;;;;;;;3341547;42;20094;-61
2022/06/22 08:23:55;;;;;;;7.78;2.72;;;;;;;;;;3352748;42;20176;-59
2022/06/22 08:26:27;;;;;;;7.32;3.22;;;;;;;;;;3339425;42;20141;-60
2022/06/22 08:28:53;;;;;;;9.35;2.80;;;;;;;;;;3346202;42;20089;-61
2022/06/22 08:31:19;;;;;;;8.40;3.07;;;;;;;;;;3352163;42;20095;-59
2022/06/22 08:33:52;;;;;;;7.30;2.78;;;;;;;;;;3352654;42;20097;-61
2022/06/22 08:36:20;;;;;;;11.32;3.75;;;;;;;;;;3339041;42;20089;-60
2022/06/22 08:38:56;;;;;;;7.00;2.60;;;;;;;;;;3353367;42;20132;-62
2022/06/22 08:41:40;;;;;;;8.95;3.38;;;;;;;;;;3341706;42;20116;-61
2022/06/22 08:44:28;;;;;;;10.93;3.27;;;;;;;;;;3348514;42;20104;-59
2022/06/22 08:47:00;;;;;;;7.80;3.20;;;;;;;;;;3357328;42;20638;-60
2022/06/22 08:49:54;;;;;;;7.25;2.80;;;;;;;;;;3347125;42;20135;-61
2022/06/22 08:52:42;;;;;;;6.43;2.80;;;;;;;;;;3351304;42;20107;-60
2022/06/22 08:55:27;;;;;;;6.85;3.03;;;;;;;;;;3350336;42;20100;-60
2022/06/22 08:58:18;;;;;;;7.33;2.97;;;;;;;;;;3349011;42;20129;-62
2022/06/22 09:01:16;;;;;;;6.20;2.97;;;;;;;;;;3349385;42;20093;-62
2022/06/22 09:03:48;;;;;;;7.85;3.20;;;;;;;;;;3349768;42;20176;-60
2022/06/22 09:06:26;;;;;;;8.57;3.40;;;;;;;;;;3351638;42;20100;-60
2022/06/22 09:09:12;;;;;;;7.68;3.28;;;;;;;;;;3354866;42;20124;-60
2022/06/22 09:11:44;;;;;;;8.47;3.47;;;;;;;;;;3350353;42;20132;-60
2022/06/22 09:14:21;;;;;;;7.03;3.28;;;;;;;;;;3342325;42;20136;-62
2022/06/22 09:17:02;;;;;;;8.10;3.47;;;;;;;;;;3348054;42;20140;-61
2022/06/22 09:19:35;;;;;;;6.95;3.20;;;;;;;;;;3344169;42;20548;-60
2022/06/22 09:22:13;;;;;;;6.93;3.00;;;;;;;;;;3347303;42;20141;-61
2022/06/22 09:24:49;;;;;;;7.87;3.23;;;;;;;;;;3345122;42;20189;-59
2022/06/22 09:27:16;;;;;;;7.57;3.20;;;;;;;;;;3352138;42;20162;-60
2022/06/22 09:30:03;;;;;;;7.82;3.00;;;;;;;;;;3351442;42;20560;-61
2022/06/22 09:32:37;;;;;;;9.90;3.30;;;;;;;;;;3350823;42;20602;-61
2022/06/22 09:35:13;;;;;;;6.97;2.90;;;;;;;;;;3351772;42;20116;-59
2022/06/22 09:37:53;;;;;;;10.70;3.20;;;;;;;;;;3347648;42;20081;-60
2022/06/22 09:40:56;;;;;;;6.57;3.10;;;;;;;;;;3351861;42;20149;-59
2022/06/22 09:43:48;;;;;;;10.32;3.38;;;;;;;;;;3333286;42;20136;-60
2022/06/22 09:46:32;;;;;;;8.70;3.30;;;;;;;;;;3346137;42;20164;-61
2022/06/22 09:49:11;;;;;;;9.43;3.38;;;;;;;;;;3352517;42;20128;-59
2022/06/22 09:52:06;;;;;;;6.87;3.30;;;;;;;;;;3346902;42;20101;-60
2022/06/22 09:58:15;;;;;;;8.77;3.45;;;;;;;;;;3350558;42;20081;-60
2022/06/22 10:00:50;;;;;;;8.05;3.13;;;;;;;;;;3357054;42;20151;-61
2022/06/22 10:03:19;;;;;;;7.28;3.53;;;;;;;;;;3346530;42;20089;-59
2022/06/22 10:06:03;;;;;;;8.47;3.50;;;;;;;;;;3350914;42;20737;-61
2022/06/22 10:08:37;;;;;;;7.63;3.30;;;;;;;;;;3354207;42;20089;-60
2022/06/22 10:11:43;;;;;;;8.88;3.42;;;;;;;;;;3351129;42;20086;-61
2022/06/22 10:14:33;;;;;;;8.55;3.38;;;;;;;;;;3340907;42;20105;-59
2022/06/22 10:17:18;;;;;;;7.72;3.45;;;;;;;;;;3355025;42;20095;-60
2022/06/22 10:20:08;;;;;;;9.53;3.60;;;;;;;;;;3346882;42;20140;-61
2022/06/22 10:22:39;;;;;;;7.57;3.67;;;;;;;;;;3349864;42;20175;-60
2022/06/22 10:25:26;;;;;;;8.20;3.50;;;;;;;;;;3347202;42;20132;-60
2022/06/22 10:28:18;;;;;;;8.20;3.80;;;;;;;;;;3349572;42;20085;-59
2022/06/22 10:30:58;;;;;;;7.45;3.55;;;;;;;;;;3352909;42;20163;-61
2022/06/22 10:33:47;;;;;;;7.27;3.80;;;;;;;;;;3341885;42;20089;-55
2022/06/22 10:36:23;;;;;;;7.05;3.50;;;;;;;;;;3342953;42;20076;-56
2022/06/22 10:39:10;;;;;;;8.30;3.70;;;;;;;;;;3350067;42;20109;-56
2022/06/22 10:45:10;;;;;;;10.23;3.70;;;;;;;;;;3351918;42;20092;-59
2022/06/22 10:48:00;;;;;;;8.70;3.60;;;;;;;;;;3346548;42;20093;-56
2022/06/22 10:50:48;;;;;;;7.55;3.72;;;;;;;;;;3355519;42;20088;-57
2022/06/22 10:53:52;;;;;;;9.85;3.60;;;;;;;;;;3358092;42;20096;-57
2022/06/22 10:56:31;;;;;;;14.00;3.90;;;;;;;;;;3362850;42;20090;-60
2022/06/22 10:59:03;;;;;;;9.88;3.47;;;;;;;;;;3358896;42;20200;-57
2022/06/22 11:01:32;;;;;;;10.63;3.73;;;;;;;;;;3349551;42;20097;-56
2022/06/22 11:04:01;;;;;;;7.35;3.35;;;;;;;;;;3355391;42;20244;-56
2022/06/22 11:06:36;;;;;;;7.50;3.83;;;;;;;;;;3353683;42;20097;-54
2022/06/22 11:09:13;;;;;;;7.28;3.72;;;;;;;;;;3349878;42;20118;-54
2022/06/22 11:11:45;;;;;;;9.45;3.53;;;;;;;;;;3355244;42;20135;-56
2022/06/22 11:14:18;;;;;;;9.77;3.77;;;;;;;;;;3351276;42;20096;-54
2022/06/22 11:17:15;;;;;;;9.77;3.63;;;;;;;;;;3352045;42;20156;-58
2022/06/22 11:19:59;;;;;;;8.90;3.58;;;;;;;;;;3366100;42;20119;-56
2022/06/22 11:22:32;;;;;;;7.68;3.50;;;;;;;;;;3349046;42;20149;-58
2022/06/22 11:30:48;;;;;;;9.10;3.50;;;;;;;;;;3354455;42;20145;-57
2022/06/22 11:31:14;;;;;;;7.18;3.38;;;;;;;;;;3351126;42;20230;-55
2022/06/22 11:33:59;;;;;;;7.78;3.70;;;;;;;;;;3351974;42;20111;-55
2022/06/22 11:36:46;;;;;;;7.68;3.88;;;;;;;;;;3354216;42;20168;-56
2022/06/22 11:39:21;;;;;;;8.18;3.70;;;;;;;;;;3353388;42;20101;-57
2022/06/22 11:42:06;;;;;;;8.23;3.70;;;;;;;;;;3350421;42;20100;-57
2022/06/22 11:45:50;;;;;;;7.65;3.85;;;;;;;;;;3353105;42;20107;-58
2022/06/22 11:48:03;;;;;;;12.00;4.18;;;;;;;;;;3342724;42;20116;-56
2022/06/22 11:50:58;;;;;;;9.40;3.92;;;;;;;;;;3353323;42;20583;-60
2022/06/22 11:54:02;;;;;;;8.63;3.65;;;;;;;;;;3352230;42;20092;-57
2022/06/22 11:56:53;;;;;;;9.47;3.90;;;;;;;;;;3351961;42;20096;-54
2022/06/22 11:59:37;;;;;;;8.20;4.20;;;;;;;;;;3344497;42;20093;-58
2022/06/22 12:02:22;;;;;;;9.05;4.05;;;;;;;;;;3348456;42;20093;-53
2022/06/22 12:05:06;;;;;;;8.00;3.80;;;;;;;;;;3354345;42;20089;-56
2022/06/22 12:07:38;;;;;;;7.22;3.90;;;;;;;;;;3346057;42;20081;-57
2022/06/22 12:10:20;;;;;;;9.47;4.17;;;;;;;;;;3360917;42;20177;-59
2022/06/22 12:13:25;;;;;;;10.35;4.30;;;;;;;;;;3360612;42;20115;-56
2022/06/22 12:15:50;;;;;;;9.02;4.00;;;;;;;;;;3360408;42;20220;-55
2022/06/22 12:18:21;;;;;;;8.48;3.65;;;;;;;;;;3358213;42;20092;-57
2022/06/22 12:21:19;;;;;;;9.60;3.33;;;;;;;;;;3350361;42;20116;-60
2022/06/22 12:24:07;;;;;;;9.70;3.30;;;;;;;;;;3336280;42;20101;-57
2022/06/22 12:26:52;;;;;;;8.10;3.55;;;;;;;;;;3347865;42;20147;-57
2022/06/22 12:29:24;;;;;;;9.25;3.83;;;;;;;;;;3353981;42;20077;-57
2022/06/22 12:31:52;;;;;;;8.95;3.65;;;;;;;;;;3355615;42;20131;-60
2022/06/22 12:34:33;;;;;;;9.00;3.60;;;;;;;;;;3362053;42;20081;-58
2022/06/22 12:37:04;;;;;;;6.80;3.47;;;;;;;;;;3359989;42;20096;-59
2022/06/22 12:39:55;;;;;;;8.07;3.70;;;;;;;;;;3354095;42;20108;-57
2022/06/22 12:42:24;;;;;;;10.48;3.67;;;;;;;;;;3358174;42;20139;-58
2022/06/22 12:45:23;;;;;;;9.20;3.90;;;;;;;;;;3356339;42;20131;-58
2022/06/22 12:47:58;;;;;;;8.83;3.77;;;;;;;;;;3357196;42;20136;-57
2022/06/22 12:50:46;;;;;;;10.82;3.78;;;;;;;;;;3357296;42;20088;-58
2022/06/22 12:53:20;;;;;;;7.82;3.70;;;;;;;;;;3356380;42;20136;-55
2022/06/22 12:55:53;;;;;;;8.52;3.90;;;;;;;;;;3355887;42;20234;-61
2022/06/22 12:58:47;;;;;;;11.73;3.70;;;;;;;;;;3355367;42;20107;-56
2022/06/22 13:01:13;;;;;;;10.07;3.60;;;;;;;;;;3359730;42;20093;-56
2022/06/22 13:03:44;;;;;;;9.50;3.85;;;;;;;;;;3357387;42;20100;-55
2022/06/22 13:06:10;;;;;;;6.82;3.70;;;;;;;;;;3352568;42;20176;-60
2022/06/22 13:08:36;;;;;;;9.68;4.03;;;;;;;;;;3359234;42;20182;-57
2022/06/22 13:11:03;;;;;;;11.27;3.90;;;;;;;;;;3352669;42;20084;-55
2022/06/22 13:14:08;;;;;;;12.93;4.20;;;;;;;;;;3342912;42;20093;-58
2022/06/22 13:16:41;;;;;;;10.25;4.47;;;;;;;;;;3340447;42;20100;-57
2022/06/22 13:19:21;;;;;;;11.20;4.78;;;;;;;;;;3338065;42;20120;-58
2022/06/22 13:22:02;;;;;;;10.60;5.10;;;;;;;;;;3347230;42;20552;-57
2022/06/22 13:24:38;;;;;;;12.70;4.83;;;;;;;;;;3349979;42;20088;-57
2022/06/22 13:27:42;;;;;;;15.05;5.57;;;;;;;;;;3351142;42;20089;-57
2022/06/22 13:30:22;;;;;;;11.02;4.35;;;;;;;;;;3355033;42;20101;-56
2022/06/22 13:33:19;;;;;;;9.85;4.60;;;;;;;;;;3353734;42;20093;-55
2022/06/22 13:36:07;;;;;;;11.07;4.28;;;;;;;;;;3344825;42;20148;-58
2022/06/22 13:39:06;;;;;;;12.17;5.33;;;;;;;;;;3340790;42;20085;-57
2022/06/22 13:41:34;;;;;;;10.68;4.35;;;;;;;;;;3352963;42;20099;-54
2022/06/22 13:44:39;;;;;;;11.93;4.43;;;;;;;;;;3354216;42;20093;-53
2022/06/22 13:47:18;;;;;;;10.35;4.78;;;;;;;;;;3360419;42;20191;-58
2022/06/22 13:50:26;;;;;;;9.30;4.50;;;;;;;;;;3357259;42;20101;-54
2022/06/22 13:52:54;;;;;;;10.20;4.50;;;;;;;;;;3352486;42;20093;-56
2022/06/22 13:55:47;;;;;;;12.05;4.57;;;;;;;;;;3347611;42;20171;-59
2022/06/22 13:58:17;;;;;;;10.05;4.78;;;;;;;;;;3355109;42;20151;-55
2022/06/22 14:01:01;;;;;;;10.63;4.50;;;;;;;;;;3356156;42;20111;-58
2022/06/22 14:03:37;;;;;;;10.38;4.20;;;;;;;;;;3353370;42;20108;-52
2022/06/22 14:06:32;;;;;;;10.53;4.20;;;;;;;;;;3344676;42;20161;-55
2022/06/22 14:09:26;;;;;;;10.82;4.50;;;;;;;;;;3350619;42;20103;-53
2022/06/22 14:12:01;;;;;;;8.80;4.70;;;;;;;;;;3355017;42;20136;-53
2022/06/22 14:14:39;;;;;;;13.55;4.57;;;;;;;;;;3356766;42;20119;-54
2022/06/22 14:17:18;;;;;;;9.57;4.32;;;;;;;;;;3362175;42;20107;-53
2022/06/22 14:20:12;;;;;;;11.80;4.50;;;;;;;;;;3351596;42;20096;-53
2022/06/22 14:22:39;;;;;;;11.00;4.55;;;;;;;;;;3363887;42;20149;-54
2022/06/22 14:25:49;;;;;;;13.40;5.13;;;;;;;;;;3351584;42;20586;-51
2022/06/22 14:28:30;;;;;;;11.15;4.90;;;;;;;;;;3357063;42;20096;-55
2022/06/22 14:31:19;;;;;;;9.52;4.55;;;;;;;;;;3355662;42;20093;-52
2022/06/22 14:33:54;;;;;;;10.87;4.77;;;;;;;;;;3354985;42;20881;-56
2022/06/22 14:36:35;;;;;;;11.02;4.68;;;;;;;;;;3352352;42;20104;-55
2022/06/22 14:39:25;;;;;;;13.27;5.00;;;;;;;;;;3349723;42;20093;-54
2022/06/22 14:42:16;;;;;;;11.85;4.97;;;;;;;;;;3353701;42;20092;-57
2022/06/22 14:44:52;;;;;;;9.35;5.00;;;;;;;;;;3355120;42;20097;-59
2022/06/22 14:47:23;;;;;;;10.80;4.77;;;;;;;;;;3350355;42;20160;-52
2022/06/22 14:49:57;;;;;;;10.32;4.85;;;;;;;;;;3350678;42;20084;-52
2022/06/22 14:52:54;;;;;;;12.75;5.22;;;;;;;;;;3353494;42;20084;-57
2022/06/22 14:55:40;;;;;;;11.68;5.70;;;;;;;;;;3348996;42;20498;-51
2022/06/22 14:58:25;;;;;;;12.15;5.35;;;;;;;;;;3348373;42;20172;-53
2022/06/22 15:01:00;;;;;;;11.83;4.60;;;;;;;;;;3350445;42;20112;-56
2022/06/22 15:03:36;;;;;;;13.55;5.70;;;;;;;;;;3353453;42;20109;-55
2022/06/22 15:06:25;;;;;;;13.02;4.93;;;;;;;;;;3350054;42;20095;-54
2022/06/22 15:09:10;;;;;;;13.23;5.20;;;;;;;;;;3344152;42;20092;-52
2022/06/22 15:14:55;;;;;;;11.57;4.83;;;;;;;;;;3349503;42;20112;-54
2022/06/22 15:17:28;;;;;;;11.85;5.47;;;;;;;;;;3353641;42;20097;-55
2022/06/22 15:20:15;;;;;;;12.38;5.47;;;;;;;;;;3357426;42;20112;-54
2022/06/22 15:23:19;;;;;;;9.45;4.75;;;;;;;;;;3348145;42;20135;-55
2022/06/22 15:25:51;;;;;;;11.10;5.38;;;;;;;;;;3348964;42;20108;-57
2022/06/22 15:28:41;;;;;;;14.43;5.37;;;;;;;;;;3353295;42;20112;-51
2022/06/22 15:31:13;;;;;;;8.63;5.10;;;;;;;;;;3351499;42;20101;-53
2022/06/22 15:33:40;;;;;;;12.48;5.28;;;;;;;;;;3352583;42;20093;-56
2022/06/22 15:36:11;;;;;;;10.52;5.82;;;;;;;;;;3350840;42;20109;-55
2022/06/22 15:38:46;;;;;;;11.77;5.90;;;;;;;;;;3355897;42;20084;-54
2022/06/22 15:41:58;;;;;;;12.17;5.73;;;;;;;;;;3346896;42;20104;-53
2022/06/22 15:44:40;;;;;;;10.35;5.55;;;;;;;;;;3342443;42;20140;-54
2022/06/22 15:47:13;;;;;;;11.50;5.75;;;;;;;;;;3350814;42;20115;-54
2022/06/22 15:50:06;;;;;;;10.95;5.80;;;;;;;;;;3351335;42;20648;-54
2022/06/22 15:52:43;;;;;;;11.60;5.60;;;;;;;;;;3351746;42;20141;-53
2022/06/22 15:55:12;;;;;;;11.87;5.40;;;;;;;;;;3354331;42;20092;-54
2022/06/22 15:57:40;;;;;;;10.02;5.03;;;;;;;;;;3346921;42;20531;-54
2022/06/22 16:00:26;;;;;;;10.02;5.40;;;;;;;;;;3351101;42;20459;-54
2022/06/22 16:03:10;;;;;;;10.32;5.15;;;;;;;;;;3338627;42;20163;-62
2022/06/22 16:05:49;;;;;;;12.10;4.80;;;;;;;;;;3346696;42;20077;-58